Página principal
METAR-TAF:

METAR-TAF

Aeroportos :

RAF Mount Pleasant

Stanley, Ilhas Malvinas

latitude: 51-49S, longitude: 058-27W, altura: 74 m

Observação actual do tempo

O boletim foi feito há 16 minutos, às 09:50 UTC
Vento 10 kt de oes-noroeste
Temperatura 1°C
Humidade 69%
Pressão 1003 hPa
Visibilidade 10 km ou mais
sem nuvens abaixo de 1500 metros e sem cumulonimbus

METAR: EGYP 180950Z 30010KT CAVOK 01/M04 Q1003 BLU NOSIG

Hora: 07:06 (10:06 UTC)

Previsão

O boletim foi feito há 3 horas e 2 minutos, às 07:04 UTC
Previsão válida de 18 às 09 UTC a 19 às 03 UTC
Vento 12 kt de oes-noroeste
Visibilidade 10 km ou mais
Poucas nuvensa uma altura de 2000 ft

TAF: EGYP 180704Z 1809/1903 29012KT 9999 FEW020

Observações e previsões do tempo de mais de 4000 aeroportos (mensagens METAR e TAF).

As estações disponíveis são os pontos amarelos e vermelhos sobre o mapa.

Mova o rato sobre o mapa para ver o nome da estação.

Depois clique no ponto para visualizar as observações e previsões meteorológicas.

Para alterar o mapa : clique nos botões verdes com uma cruz preta para aumentar o zoom; no botão verde com uma pitada de zoom; ou nas setas verdes para mapas adjacentes.


METAR-TAF: